Time;durP1;ratioP1;P1;durP2;ratioP2;P2;SDS_P1;SDS_P2;PMS_P1;PMS_P2;Temp;Humidity;BMP_temperature;BMP_pressure;BME280_temperature;BME280_humidity;BME280_pressure;Samples;Min_cycle;Max_cycle;Signal;HPM_P1;HPM_P2
2022/12/02 00:00:24;;;;;;;;;;;;;;;3.96;100.00;102575.34;5094220;28;19916;-64
2022/12/02 00:02:50;;;;;;;;;;;;;;;3.98;100.00;102575.38;5094551;28;19912;-63
2022/12/02 00:05:15;;;;;;;;;;;;;;;4.00;100.00;102578.03;5076342;28;19912;-63
2022/12/02 00:07:41;;;;;;;;;;;;;;;4.01;100.00;102564.13;5094146;28;19912;-62
2022/12/02 00:10:22;;;;;;;;;;;;;;;4.01;100.00;102565.00;5094824;28;19962;-63
2022/12/02 00:12:47;;;;;;;;;;;;;;;4.05;100.00;102568.56;5094204;28;19912;-64
2022/12/02 00:15:28;;;;;;;;;;;;;;;4.04;100.00;102567.69;5076411;28;19934;-63
2022/12/02 00:17:53;;;;;;;;;;;;;;;4.07;100.00;102561.66;5094482;28;19923;-63
2022/12/02 00:20:18;;;;;;;;;;;;;;;4.09;100.00;102554.75;5093935;28;19916;-63
2022/12/02 00:22:43;;;;;;;;;;;;;;;4.11;100.00;102553.94;5076149;28;19923;-63
2022/12/02 00:25:08;;;;;;;;;;;;;;;4.12;100.00;102560.91;5093995;28;19916;-63
2022/12/02 00:27:34;;;;;;;;;;;;;;;4.15;100.00;102553.16;5094621;28;19916;-63
2022/12/02 00:29:59;;;;;;;;;;;;;;;4.15;100.00;102550.53;5093758;28;19916;-63
2022/12/02 00:32:24;;;;;;;;;;;;;;;4.15;100.00;102557.47;5094062;28;19916;-63
2022/12/02 00:34:49;;;;;;;;;;;;;;;4.15;100.00;102555.75;5094096;28;20006;-64
2022/12/02 00:37:14;;;;;;;;;;;;;;;4.16;100.00;102557.53;5093927;28;19982;-62
2022/12/02 00:39:40;;;;;;;;;;;;;;;4.18;100.00;102554.94;5093715;28;20454;-64
2022/12/02 00:42:05;;;;;;;;;;;;;;;4.18;100.00;102544.50;5093598;28;19926;-63
2022/12/02 00:47:14;;;;;;;;;;;;;;;4.15;100.00;102547.94;5093433;28;19919;-63
2022/12/02 00:49:39;;;;;;;;;;;;;;;4.12;100.00;102546.97;5093687;28;19912;-63
2022/12/02 00:52:04;;;;;;;;;;;;;;;4.10;100.00;102546.97;5093567;28;19912;-63
2022/12/02 00:54:29;;;;;;;;;;;;;;;4.10;100.00;102549.56;5093483;28;19916;-62
2022/12/02 00:56:55;;;;;;;;;;;;;;;4.10;100.00;102539.16;5075677;28;19912;-62
2022/12/02 00:59:20;;;;;;;;;;;;;;;4.10;100.00;102539.16;5075163;28;19916;-64
2022/12/02 01:01:45;;;;;;;;;;;;;;;4.12;100.00;102541.78;5093489;28;19920;-62
2022/12/02 01:04:11;;;;;;;;;;;;;;;4.13;100.00;102534.00;5093202;28;20298;-63
2022/12/02 01:06:36;;;;;;;;;;;;;;;4.12;100.00;102520.94;5075084;28;19918;-62
2022/12/02 01:09:01;;;;;;;;;;;;;;;4.11;100.00;102530.50;5074970;28;20294;-63
2022/12/02 01:11:26;;;;;;;;;;;;;;;4.11;100.00;102534.81;5075119;28;19919;-63
2022/12/02 01:13:52;;;;;;;;;;;;;;;4.13;100.00;102535.72;5093322;28;20371;-63
2022/12/02 01:16:17;;;;;;;;;;;;;;;4.12;100.00;102542.66;5093057;28;20049;-64
2022/12/02 01:18:42;;;;;;;;;;;;;;;4.13;100.00;102540.94;5093119;28;19973;-63
2022/12/02 01:21:07;;;;;;;;;;;;;;;4.13;100.00;102536.59;5075295;28;19908;-66
2022/12/02 01:23:32;;;;;;;;;;;;;;;4.11;100.00;102537.44;5093080;28;20024;-65
2022/12/02 01:25:58;;;;;;;;;;;;;;;4.13;100.00;102530.50;5095245;28;19920;-63
2022/12/02 01:28:23;;;;;;;;;;;;;;;4.16;100.00;102533.19;5092955;28;19916;-63
2022/12/02 01:30:48;;;;;;;;;;;;;;;4.16;100.00;102538.41;5092635;28;20338;-64
2022/12/02 01:33:14;;;;;;;;;;;;;;;4.12;100.00;102539.16;5057249;28;19923;-63
2022/12/02 01:35:39;;;;;;;;;;;;;;;4.10;100.00;102541.75;5092829;28;20371;-63
2022/12/02 01:38:04;;;;;;;;;;;;;;;4.09;100.00;102533.88;5092807;28;19938;-63
2022/12/02 01:40:29;;;;;;;;;;;;;;;4.07;100.00;102543.41;5093876;28;20011;-64
2022/12/02 01:42:55;;;;;;;;;;;;;;;4.07;100.00;102546.00;5092586;28;19976;-62
2022/12/02 01:45:20;;;;;;;;;;;;;;;4.06;100.00;102539.91;5092623;28;19977;-63
2022/12/02 01:47:45;;;;;;;;;;;;;;;4.05;100.00;102543.41;5074795;28;19919;-63
2022/12/02 01:50:11;;;;;;;;;;;;;;;4.04;100.00;102543.34;5074386;28;19912;-64
2022/12/02 01:52:36;;;;;;;;;;;;;;;4.02;100.00;102535.50;5074479;28;19923;-63
2022/12/02 01:55:01;;;;;;;;;;;;;;;4.02;100.00;102551.16;5092608;28;19912;-63
2022/12/02 01:57:27;;;;;;;;;;;;;;;3.98;100.00;102550.19;5074508;28;19912;-62
2022/12/02 01:59:53;;;;;;;;;;;;;;;4.00;100.00;102557.19;5092846;28;19916;-64
2022/12/02 02:02:24;;;;;;;;;;;;;;;4.01;100.00;102556.31;5092592;28;19920;-64
2022/12/02 02:04:49;;;;;;;;;;;;;;;3.97;100.00;102538.00;5092476;28;19912;-64
2022/12/02 02:07:14;;;;;;;;;;;;;;;3.98;100.00;102541.50;5092247;28;19938;-62
2022/12/02 02:09:39;;;;;;;;;;;;;;;3.97;100.00;102534.50;5074562;28;19911;-63
2022/12/02 02:12:05;;;;;;;;;;;;;;;3.94;100.00;102534.47;5074636;28;19915;-63
2022/12/02 02:14:30;;;;;;;;;;;;;;;3.90;100.00;102540.44;5093030;28;20011;-63
2022/12/02 02:16:56;;;;;;;;;;;;;;;3.86;100.00;102534.28;5091920;28;19915;-63
2022/12/02 02:19:21;;;;;;;;;;;;;;;3.84;100.00;102532.50;5091770;28;19912;-63
2022/12/02 02:21:47;;;;;;;;;;;;;;;3.79;100.00;102516.78;5075341;28;19918;-64
2022/12/02 02:24:12;;;;;;;;;;;;;;;3.79;100.00;102518.50;5074319;28;19966;-62
2022/12/02 02:26:37;;;;;;;;;;;;;;;3.75;100.00;102517.56;5092424;28;19965;-63
2022/12/02 02:29:03;;;;;;;;;;;;;;;3.73;100.00;102519.25;5092424;28;19912;-63
2022/12/02 02:31:28;;;;;;;;;;;;;;;3.72;100.00;102520.09;5092191;28;20354;-63
2022/12/02 02:33:53;;;;;;;;;;;;;;;3.71;100.00;102514.81;5092049;28;19962;-63
2022/12/02 02:36:21;;;;;;;;;;;;;;;3.64;100.00;102516.44;5057202;28;19916;-63
2022/12/02 02:38:48;;;;;;;;;;;;;;;3.70;100.00;102520.91;5074424;28;20421;-62
2022/12/02 02:41:13;;;;;;;;;;;;;;;3.68;100.00;102518.25;5092304;28;19912;-63
2022/12/02 02:43:38;;;;;;;;;;;;;;;3.70;100.00;102510.50;5074975;28;20285;-63
2022/12/02 02:46:04;;;;;;;;;;;;;;;3.72;100.00;102506.19;5095998;28;20404;-63
2022/12/02 02:48:50;;;;;;;;;;;;;;;3.73;100.00;102511.44;5077895;28;20442;-63
2022/12/02 02:51:17;;;;;;;;;;;;;;;3.74;100.00;102507.09;5077075;28;19912;-63
2022/12/02 02:53:43;;;;;;;;;;;;;;;3.74;100.00;102500.16;5077464;28;19915;-63
2022/12/02 02:56:08;;;;;;;;;;;;;;;3.75;100.00;102499.31;5095957;28;19961;-63
2022/12/02 02:58:34;;;;;;;;;;;;;;;3.77;100.00;102500.22;5077730;28;19912;-64
2022/12/02 03:01:00;;;;;;;;;;;;;;;3.80;100.00;102496.81;5077755;28;20446;-62
2022/12/02 03:03:27;;;;;;;;;;;;;;;3.77;100.00;102497.63;5077719;28;19998;-62
2022/12/02 03:05:52;;;;;;;;;;;;;;;3.80;100.00;102496.81;5095800;28;20003;-64
2022/12/02 03:08:18;;;;;;;;;;;;;;;3.80;100.00;102491.59;5077706;28;20327;-62
2022/12/02 03:10:43;;;;;;;;;;;;;;;3.80;100.00;102486.38;5078165;28;20205;-63
2022/12/02 03:13:08;;;;;;;;;;;;;;;3.83;100.00;102482.13;5095633;28;19913;-64
2022/12/02 03:15:34;;;;;;;;;;;;;;;3.83;100.00;102486.44;5095579;28;19912;-64
2022/12/02 03:17:59;;;;;;;;;;;;;;;3.81;100.00;102491.66;5096095;28;19963;-64
2022/12/02 03:20:24;;;;;;;;;;;;;;;3.83;100.00;102481.25;5077688;28;19912;-63
2022/12/02 03:22:49;;;;;;;;;;;;;;;3.82;100.00;102482.97;5095970;28;19919;-63
2022/12/02 03:25:14;;;;;;;;;;;;;;;3.84;100.00;102489.09;5095318;28;20418;-63
2022/12/02 03:27:40;;;;;;;;;;;;;;;3.83;100.00;102487.34;5095450;28;20011;-63
2022/12/02 03:30:06;;;;;;;;;;;;;;;3.81;100.00;102494.25;5094841;28;19927;-65
2022/12/02 03:32:31;;;;;;;;;;;;;;;3.84;100.00;102498.63;5094903;28;19919;-64
2022/12/02 03:34:56;;;;;;;;;;;;;;;3.85;100.00;102490.00;5077207;28;20016;-63
2022/12/02 03:37:22;;;;;;;;;;;;;;;3.86;100.00;102474.38;5095292;28;19907;-63
2022/12/02 03:39:47;;;;;;;;;;;;;;;3.85;100.00;102472.59;5076940;28;20033;-63
2022/12/02 03:42:13;;;;;;;;;;;;;;;3.84;100.00;102465.66;5095336;28;19908;-63
2022/12/02 03:44:38;;;;;;;;;;;;;;;3.84;100.00;102470.00;5094964;28;19916;-63
2022/12/02 03:47:03;;;;;;;;;;;;;;;3.85;100.00;102466.53;5076815;28;19912;-63
2022/12/02 03:49:28;;;;;;;;;;;;;;;3.87;100.00;102457.91;5095067;28;19916;-64
2022/12/02 03:51:54;;;;;;;;;;;;;;;3.86;100.00;102474.38;5076849;28;19919;-63
2022/12/02 03:54:19;;;;;;;;;;;;;;;3.86;100.00;102466.56;5076466;28;20415;-67
2022/12/02 03:56:44;;;;;;;;;;;;;;;3.85;100.00;102475.22;5093944;28;19912;-64
2022/12/02 03:59:10;;;;;;;;;;;;;;;3.88;100.00;102477.88;5094666;28;20275;-63
2022/12/02 04:01:35;;;;;;;;;;;;;;;3.89;100.00;102469.22;5076420;28;19969;-64
2022/12/02 04:04:00;;;;;;;;;;;;;;;3.86;100.00;102468.28;5094363;28;19978;-65
2022/12/02 04:06:25;;;;;;;;;;;;;;;3.87;100.00;102465.72;5094434;28;19916;-64
2022/12/02 04:08:51;;;;;;;;;;;;;;;3.86;100.00;102469.16;5094424;28;19916;-63
2022/12/02 04:11:16;;;;;;;;;;;;;;;3.87;100.00;102467.44;5094466;28;19924;-63
2022/12/02 04:13:41;;;;;;;;;;;;;;;3.86;100.00;102466.56;5094346;28;19912;-64
2022/12/02 04:16:06;;;;;;;;;;;;;;;3.87;100.00;102462.25;5094637;28;19916;-63
2022/12/02 04:18:32;;;;;;;;;;;;;;;3.85;100.00;102458.72;5094648;28;19923;-63
2022/12/02 04:20:57;;;;;;;;;;;;;;;3.85;100.00;102464.78;5093892;28;19908;-63
2022/12/02 04:23:22;;;;;;;;;;;;;;;3.86;100.00;102457.88;5094388;28;19918;-63
2022/12/02 04:25:47;;;;;;;;;;;;;;;3.84;100.00;102456.97;5094151;28;20010;-63
2022/12/02 04:28:12;;;;;;;;;;;;;;;3.84;100.00;102455.25;5094157;28;19994;-63
2022/12/02 04:30:38;;;;;;;;;;;;;;;3.86;100.00;102455.25;5094406;28;19920;-65
2022/12/02 04:33:03;;;;;;;;;;;;;;;3.87;100.00;102444.00;5093927;28;19916;-63
2022/12/02 04:35:28;;;;;;;;;;;;;;;3.86;100.00;102453.53;5093921;28;19923;-63
2022/12/02 04:37:54;;;;;;;;;;;;;;;3.86;100.00;102450.03;5093724;28;19915;-63
2022/12/02 04:40:20;;;;;;;;;;;;;;;3.86;100.00;102444.84;5093870;28;19961;-64
2022/12/02 04:42:45;;;;;;;;;;;;;;;3.88;100.00;102443.16;5075663;28;19912;-63
2022/12/02 04:45:10;;;;;;;;;;;;;;;3.88;100.00;102435.34;5093719;28;20043;-63
2022/12/02 04:47:36;;;;;;;;;;;;;;;3.87;100.00;102441.41;5075813;28;19916;-63
2022/12/02 04:50:02;;;;;;;;;;;;;;;3.87;100.00;102430.97;5075849;28;19923;-63
2022/12/02 04:52:27;;;;;;;;;;;;;;;3.86;100.00;102434.41;5094104;28;19919;-63
2022/12/02 04:54:52;;;;;;;;;;;;;;;3.87;100.00;102428.38;5075581;28;19912;-63
2022/12/02 04:57:17;;;;;;;;;;;;;;;3.84;100.00;102429.19;5075515;28;20290;-62
2022/12/02 04:59:43;;;;;;;;;;;;;;;3.82;100.00;102425.66;5093897;28;20374;-62
2022/12/02 05:02:08;;;;;;;;;;;;;;;3.81;100.00;102434.34;5093358;28;19916;-63
2022/12/02 05:04:33;;;;;;;;;;;;;;;3.80;100.00;102431.69;5093390;28;19924;-62
2022/12/02 05:06:58;;;;;;;;;;;;;;;3.76;100.00;102425.56;5092791;28;19938;-64
2022/12/02 05:09:23;;;;;;;;;;;;;;;3.73;100.00;102433.31;5075087;28;19915;-64
2022/12/02 05:11:49;;;;;;;;;;;;;;;3.76;100.00;102422.97;5092956;28;19962;-64
2022/12/02 05:14:14;;;;;;;;;;;;;;;3.72;100.00;102417.63;5092876;28;19977;-64
2022/12/02 05:16:39;;;;;;;;;;;;;;;3.68;100.00;102419.28;5093089;28;19920;-63
2022/12/02 05:19:04;;;;;;;;;;;;;;;3.70;100.00;102425.44;5093230;28;20059;-63
2022/12/02 05:21:29;;;;;;;;;;;;;;;3.72;100.00;102425.44;5074814;28;19916;-64
2022/12/02 05:23:54;;;;;;;;;;;;;;;3.70;100.00;102425.44;5092990;28;19916;-63
2022/12/02 05:26:20;;;;;;;;;;;;;;;3.67;100.00;102421.88;5093007;28;19916;-63
2022/12/02 05:28:45;;;;;;;;;;;;;;;3.64;100.00;102424.41;5092969;28;19927;-64
2022/12/02 05:31:10;;;;;;;;;;;;;;;3.66;100.00;102431.41;5094177;28;19924;-63
2022/12/02 05:33:35;;;;;;;;;;;;;;;3.64;100.00;102427.91;5092984;28;19924;-63
2022/12/02 05:36:01;;;;;;;;;;;;;;;3.66;100.00;102428.81;5092759;28;20264;-64
2022/12/02 05:38:26;;;;;;;;;;;;;;;3.63;100.00;102433.06;5092893;28;19922;-63
2022/12/02 05:40:54;;;;;;;;;;;;;;;3.63;100.00;102430.47;5093183;28;19912;-63
2022/12/02 05:43:21;;;;;;;;;;;;;;;3.66;100.00;102431.41;5092662;28;20316;-63
2022/12/02 05:45:46;;;;;;;;;;;;;;;3.64;100.00;102430.50;5074595;28;20274;-63
2022/12/02 05:48:12;;;;;;;;;;;;;;;3.62;100.00;102428.72;5092665;28;19923;-64
2022/12/02 05:50:38;;;;;;;;;;;;;;;3.61;100.00;102420.03;5092983;28;19912;-64
2022/12/02 05:53:03;;;;;;;;;;;;;;;3.63;100.00;102430.47;5074782;28;20328;-63
2022/12/02 05:55:29;;;;;;;;;;;;;;;3.63;100.00;102418.31;5092601;28;19912;-64
2022/12/02 05:57:55;;;;;;;;;;;;;;;3.63;100.00;102414.84;5074481;28;19911;-64
2022/12/02 06:00:21;;;;;;;;;;;;;;;3.61;100.00;102412.22;5074563;28;19924;-64
2022/12/02 06:02:47;;;;;;;;;;;;;;;3.62;100.00;102419.16;5074578;28;19920;-62
2022/12/02 06:05:13;;;;;;;;;;;;;;;3.61;100.00;102414.81;5070405;28;19966;-64
2022/12/02 06:07:38;;;;;;;;;;;;;;;3.59;100.00;102419.09;5072405;28;19920;-68
2022/12/02 06:10:08;;;;;;;;;;;;;;;3.59;100.00;102423.44;5072553;28;19935;-63
2022/12/02 06:12:34;;;;;;;;;;;;;;;3.57;100.00;102425.13;5072534;28;19955;-65
2022/12/02 06:15:02;;;;;;;;;;;;;;;3.54;100.00;102423.34;5072523;28;19966;-62
2022/12/02 06:17:27;;;;;;;;;;;;;;;3.50;100.00;102421.53;5072718;28;19923;-66
2022/12/02 06:19:53;;;;;;;;;;;;;;;3.46;100.00;102427.50;5057132;28;19912;-62
2022/12/02 06:22:22;;;;;;;;;;;;;;;3.42;100.00;102423.94;5058623;28;20366;-62
2022/12/02 06:24:47;;;;;;;;;;;;;;;3.44;100.00;102428.31;5058575;28;19919;-64
2022/12/02 06:27:13;;;;;;;;;;;;;;;3.46;100.00;102427.50;5076038;28;19920;-64
2022/12/02 06:29:43;;;;;;;;;;;;;;;3.40;100.00;102427.38;5058520;28;20323;-64
2022/12/02 06:32:09;;;;;;;;;;;;;;;3.36;100.00;102425.53;5076019;28;19924;-63
2022/12/02 06:34:39;;;;;;;;;;;;;;;3.33;100.00;102431.56;5076220;28;20291;-65
2022/12/02 06:37:13;;;;;;;;;;;;;;;3.27;100.00;102426.22;5076342;28;20011;-64
2022/12/02 06:39:39;;;;;;;;;;;;;;;3.25;100.00;102429.63;5075838;28;19913;-63
2022/12/02 06:42:24;;;;;;;;;;;;;;;3.24;100.00;102427.88;5057861;28;19962;-64
2022/12/02 06:45:05;;;;;;;;;;;;;;;3.22;100.00;102425.22;5061369;28;20342;-64
2022/12/02 06:47:36;;;;;;;;;;;;;;;3.21;100.00;102433.03;5060175;28;19918;-64
2022/12/02 06:50:04;;;;;;;;;;;;;;;3.17;100.00;102429.47;5075684;28;19953;-63
2022/12/02 06:52:33;;;;;;;;;;;;;;;3.16;100.00;102426.81;5076070;28;20011;-63
2022/12/02 06:54:58;;;;;;;;;;;;;;;3.13;100.00;102429.34;5075517;28;19912;-65
2022/12/02 06:57:24;;;;;;;;;;;;;;;3.08;100.00;102433.56;5056578;28;20264;-64
2022/12/02 06:59:49;;;;;;;;;;;;;;;3.09;100.00;102432.72;5054948;28;19981;-62
2022/12/02 07:02:30;;;;;;;;;;;;;;;3.05;100.00;102430.91;5038568;28;19948;-63
2022/12/02 07:04:56;;;;;;;;;;;;;;;3.05;100.00;102433.50;5055998;28;19962;-64
2022/12/02 07:07:22;;;;;;;;;;;;;;;2.99;100.00;102429.03;5057614;28;19963;-64
2022/12/02 07:09:47;;;;;;;;;;;;;;;3.00;100.00;102432.50;5056038;28;20023;-62
2022/12/02 07:12:20;;;;;;;;;;;;;;;2.99;100.00;102430.75;5056976;28;20387;-61
2022/12/02 07:14:52;;;;;;;;;;;;;;;2.99;100.00;102446.34;5075518;28;19967;-62
2022/12/02 07:17:17;;;;;;;;;;;;;;;2.96;100.00;102444.56;5075482;28;20011;-62
2022/12/02 07:19:43;;;;;;;;;;;;;;;2.92;100.00;102440.13;5074909;28;19948;-63
2022/12/02 07:22:15;;;;;;;;;;;;;;;2.87;100.00;102444.34;5056699;28;19916;-63
2022/12/02 07:24:41;;;;;;;;;;;;;;;2.84;100.00;102441.66;5056385;28;20387;-62
2022/12/02 07:27:13;;;;;;;;;;;;;;;2.77;100.00;102444.97;5075079;28;19917;-62
2022/12/02 07:29:38;;;;;;;;;;;;;;;2.77;100.00;102448.41;5056775;28;19921;-64
2022/12/02 07:32:03;;;;;;;;;;;;;;;2.77;100.00;102456.22;5074190;28;20021;-62
2022/12/02 07:34:28;;;;;;;;;;;;;;;2.77;100.00;102452.78;5074961;28;20648;-61
2022/12/02 07:36:53;;;;;;;;;;;;;;;2.78;100.00;102457.09;5074570;28;19915;-62
2022/12/02 07:39:19;;;;;;;;;;;;;;;2.80;100.00;102463.25;5074724;28;19926;-63
2022/12/02 07:41:44;;;;;;;;;;;;;;;2.80;100.00;102455.44;5074750;28;20278;-64
2022/12/02 07:44:09;;;;;;;;;;;;;;;2.81;100.00;102457.19;5056712;28;19952;-63
2022/12/02 07:46:34;;;;;;;;;;;;;;;2.81;100.00;102457.19;5074591;28;19912;-62
2022/12/02 07:49:00;;;;;;;;;;;;;;;2.83;100.00;102458.97;5074456;28;19923;-63
2022/12/02 07:51:25;;;;;;;;;;;;;;;2.82;100.00;102462.44;5057012;28;19919;-61
2022/12/02 07:53:50;;;;;;;;;;;;;;;2.79;100.00;102474.47;5074945;28;20012;-62
2022/12/02 07:56:15;;;;;;;;;;;;;;;2.84;100.00;102465.94;5056965;28;19955;-64
2022/12/02 07:58:41;;;;;;;;;;;;;;;2.82;100.00;102457.25;5074625;28;20286;-63
2022/12/02 08:01:06;;;;;;;;;;;;;;;2.79;100.00;102475.38;5074284;28;19924;-62
2022/12/02 08:03:31;;;;;;;;;;;;;;;2.80;100.00;102476.25;5074237;28;20418;-64
2022/12/02 08:05:56;;;;;;;;;;;;;;;2.81;100.00;102472.78;5072986;28;19974;-62
2022/12/02 08:08:21;;;;;;;;;;;;;;;2.78;100.00;102471.00;5074877;28;20008;-63
2022/12/02 08:10:47;;;;;;;;;;;;;;;2.79;100.00;102458.88;5074108;28;19963;-64
2022/12/02 08:13:12;;;;;;;;;;;;;;;2.75;100.00;102481.31;5074871;28;19974;-64
2022/12/02 08:15:37;;;;;;;;;;;;;;;2.70;100.00;102482.94;5056209;28;20345;-63
2022/12/02 08:18:02;;;;;;;;;;;;;;;2.69;100.00;102483.75;5056253;28;20291;-60
2022/12/02 08:20:29;;;;;;;;;;;;;;;2.77;100.00;102481.38;5074243;28;20345;-64
2022/12/02 08:22:54;;;;;;;;;;;;;;;2.78;100.00;102481.41;5074209;28;19917;-61
2022/12/02 08:25:19;;;;;;;;;;;;;;;2.82;100.00;102475.44;5072527;28;20279;-63
2022/12/02 08:27:45;;;;;;;;;;;;;;;2.78;100.00;102475.31;5073413;28;20450;-60
2022/12/02 08:30:11;;;;;;;;;;;;;;;2.77;100.00;102481.38;5072894;28;20383;-60
2022/12/02 08:32:36;;;;;;;;;;;;;;;2.82;100.00;102483.25;5034666;28;20026;-61
2022/12/02 08:35:02;;;;;;;;;;;;;;;2.83;100.00;102479.78;5050307;28;20055;-62
2022/12/02 08:37:27;;;;;;;;;;;;;;;2.86;100.00;102489.38;5051652;28;20011;-64
2022/12/02 08:39:52;;;;;;;;;;;;;;;2.84;100.00;102475.47;5050504;28;20112;-62
2022/12/02 08:42:17;;;;;;;;;;;;;;;2.78;100.00;102480.50;5052198;28;19921;-63
2022/12/02 08:44:43;;;;;;;;;;;;;;;2.86;100.00;102485.91;5052184;28;19917;-64
2022/12/02 08:47:08;;;;;;;;;;;;;;;2.87;100.00;102483.34;5052028;28;19940;-60
2022/12/02 08:49:34;;;;;;;;;;;;;;;2.91;100.00;102479.09;5050919;28;19960;-62
2022/12/02 08:51:59;;;;;;;;;;;;;;;2.89;100.00;102473.84;5052166;28;20392;-61
2022/12/02 08:54:25;;;;;;;;;;;;;;;2.96;100.00;102482.69;5052071;28;20496;-64
2022/12/02 08:56:50;;;;;;;;;;;;;;;3.02;100.00;102485.44;5052395;28;19939;-62
2022/12/02 08:59:15;;;;;;;;;;;;;;;3.03;100.00;102482.91;5051662;28;20358;-64
2022/12/02 09:01:41;;;;;;;;;;;;;;;3.06;100.00;102484.69;5050176;28;19917;-64
2022/12/02 09:04:06;;;;;;;;;;;;;;;3.10;100.00;102481.31;5050924;28;19919;-62
2022/12/02 09:06:31;;;;;;;;;;;;;;;3.12;100.00;102479.63;5051843;28;19921;-62
2022/12/02 09:08:56;;;;;;;;;;;;;;;3.20;100.00;102485.91;5050874;28;19912;-64
2022/12/02 09:11:22;;;;;;;;;;;;;;;3.21;100.00;102477.25;5052424;28;19916;-62
2022/12/02 09:13:47;;;;;;;;;;;;;;;3.24;100.00;102472.13;5050492;28;19936;-65
2022/12/02 09:16:12;;;;;;;;;;;;;;;3.24;100.00;102482.53;5050292;28;19920;-62
2022/12/02 09:18:37;;;;;;;;;;;;;;;3.27;100.00;102486.06;5051707;28;20020;-64
2022/12/02 09:21:03;;;;;;;;;;;;;;;3.26;100.00;102481.72;5051805;28;19932;-64
2022/12/02 09:23:29;;;;;;;;;;;;;;;3.28;100.00;102472.22;5051885;28;19924;-64
2022/12/02 09:25:54;;;;;;;;;;;;;;;3.31;100.00;102479.22;5050453;28;19921;-60
2022/12/02 09:28:21;;;;;;;;;;;;;;;3.39;100.00;102488.06;5050781;28;19931;-63
2022/12/02 09:30:46;;;;;;;;;;;;;;;3.37;100.00;102490.66;5051115;28;20339;-62
2022/12/02 09:33:11;;;;;;;;;;;;;;;3.39;100.00;102480.25;5053158;28;19935;-65
2022/12/02 09:35:36;;;;;;;;;;;;;;;3.35;100.00;102481.94;5053239;28;19920;-61
2022/12/02 09:38:02;;;;;;;;;;;;;;;3.37;100.00;102485.44;5070990;28;19962;-62
2022/12/02 09:40:27;;;;;;;;;;;;;;;3.44;100.00;102483.00;5071788;28;19920;-60
2022/12/02 09:42:52;;;;;;;;;;;;;;;3.46;100.00;102489.09;5071165;28;19962;-64
2022/12/02 09:45:17;;;;;;;;;;;;;;;3.50;100.00;102486.63;5053260;28;19916;-62
2022/12/02 09:47:43;;;;;;;;;;;;;;;3.56;100.00;102484.13;5071322;28;20015;-62
2022/12/02 09:50:12;;;;;;;;;;;;;;;3.65;100.00;102488.69;5070788;28;20383;-61
2022/12/02 09:52:37;;;;;;;;;;;;;;;3.58;100.00;102492.88;5071181;28;19978;-64
2022/12/02 09:55:07;;;;;;;;;;;;;;;3.55;100.00;102487.59;5069794;28;20216;-63
2022/12/02 09:57:32;;;;;;;;;;;;;;;3.53;100.00;102489.28;5053595;28;19923;-60
2022/12/02 09:59:58;;;;;;;;;;;;;;;3.41;100.00;102484.66;5070858;28;19916;-64
2022/12/02 10:02:25;;;;;;;;;;;;;;;3.33;100.00;102478.41;5053184;28;19916;-62
2022/12/02 10:04:51;;;;;;;;;;;;;;;3.28;100.00;102480.03;5052968;28;19977;-61
2022/12/02 10:07:16;;;;;;;;;;;;;;;3.31;100.00;102481.81;5052763;28;19942;-62
2022/12/02 10:09:41;;;;;;;;;;;;;;;3.39;100.00;102467.25;5070646;28;19928;-62
2022/12/02 10:12:07;;;;;;;;;;;;;;;3.51;100.00;102469.25;5070636;28;19917;-63
2022/12/02 10:14:32;;;;;;;;;;;;;;;3.62;100.00;102478.19;5053272;28;20010;-63
2022/12/02 10:16:58;;;;;;;;;;;;;;;3.68;100.00;102465.28;5035687;28;20038;-63
2022/12/02 10:19:23;;;;;;;;;;;;;;;3.81;100.00;102460.38;5070977;28;19917;-63
2022/12/02 10:21:48;;;;;;;;;;;;;;;3.88;100.00;102462.25;5071344;28;19926;-62
2022/12/02 10:24:13;;;;;;;;;;;;;;;3.94;100.00;102462.38;5052610;28;20363;-62
2022/12/02 10:26:44;;;;;;;;;;;;;;;4.05;100.00;102456.53;5070838;28;20055;-63
2022/12/02 10:29:12;;;;;;;;;;;;;;;4.04;100.00;102465.16;5069776;28;19912;-62
2022/12/02 10:31:37;;;;;;;;;;;;;;;4.09;100.00;102469.63;5034291;28;19928;-62
2022/12/02 10:34:04;;;;;;;;;;;;;;;4.01;100.00;102458.19;5069328;28;19913;-63
2022/12/02 10:36:30;;;;;;;;;;;;;;;3.83;100.00;102455.19;5052749;28;19909;-61
2022/12/02 10:38:56;;;;;;;;;;;;;;;3.67;100.00;102454.00;5070753;28;20004;-61
2022/12/02 10:41:24;;;;;;;;;;;;;;;3.64;100.00;102442.66;5052835;28;19924;-59
2022/12/02 10:44:04;;;;;;;;;;;;;;;3.66;100.00;102430.53;5052184;28;19927;-61
2022/12/02 10:46:30;;;;;;;;;;;;;;;3.72;100.00;102421.13;5070776;28;19958;-65
2022/12/02 10:48:55;;;;;;;;;;;;;;;3.77;100.00;102416.88;5070963;28;20325;-63
2022/12/02 10:51:20;;;;;;;;;;;;;;;3.81;100.00;102415.22;5052642;28;19946;-62
2022/12/02 10:53:48;;;;;;;;;;;;;;;3.87;100.00;102420.56;5053980;28;19940;-63
2022/12/02 10:56:22;;;;;;;;;;;;;;;4.04;100.00;102429.56;5052432;28;19913;-63
2022/12/02 10:58:49;;;;;;;;;;;;;;;4.10;100.00;102434.03;5070587;28;20007;-61
2022/12/02 11:01:15;;;;;;;;;;;;;;;4.16;100.00;102427.22;5070275;28;19989;-61
2022/12/02 11:03:40;;;;;;;;;;;;;;;4.08;100.00;102431.41;5052600;28;19916;-61
2022/12/02 11:06:12;;;;;;;;;;;;;;;4.18;100.00;102435.03;5073139;28;20283;-60
2022/12/02 11:08:40;;;;;;;;;;;;;;;4.17;100.00;102428.09;5056204;28;20003;-60
2022/12/02 11:11:15;;;;;;;;;;;;;;;4.21;100.00;102428.16;5073974;28;19977;-63
2022/12/02 11:13:48;;;;;;;;;;;;;;;4.11;100.00;102425.38;5039724;28;19959;-62
2022/12/02 11:16:25;;;;;;;;;;;;;;;4.19;100.00;102426.38;5073702;28;20370;-61
2022/12/02 11:18:55;;;;;;;;;;;;;;;4.18;100.00;102422.91;5074010;28;20255;-60
2022/12/02 11:21:26;;;;;;;;;;;;;;;4.19;100.00;102423.78;5055963;28;19919;-63
2022/12/02 11:24:10;;;;;;;;;;;;;;;4.24;100.00;102427.34;5073810;28;19908;-63
2022/12/02 11:26:54;;;;;;;;;;;;;;;4.05;100.00;102415.72;5073402;28;19919;-61
2022/12/02 11:29:19;;;;;;;;;;;;;;;3.99;100.00;102405.16;5073955;28;20021;-63
2022/12/02 11:31:59;;;;;;;;;;;;;;;3.92;100.00;102416.31;5072944;28;20222;-62
2022/12/02 11:34:24;;;;;;;;;;;;;;;3.91;100.00;102414.56;5074584;28;19912;-61
2022/12/02 11:37:10;;;;;;;;;;;;;;;3.79;100.00;102417.81;5054208;28;20026;-61
2022/12/02 11:39:39;;;;;;;;;;;;;;;3.71;100.00;102408.06;5064298;28;19916;-63
2022/12/02 11:42:04;;;;;;;;;;;;;;;3.69;100.00;102412.38;5073504;28;19916;-62
2022/12/02 11:44:29;;;;;;;;;;;;;;;3.65;100.00;102419.22;5073449;28;19919;-63
2022/12/02 11:46:58;;;;;;;;;;;;;;;3.56;100.00;102419.03;5073229;28;20329;-61
2022/12/02 11:49:31;;;;;;;;;;;;;;;3.56;100.00;102413.81;5055739;28;19931;-63
2022/12/02 11:52:12;;;;;;;;;;;;;;;3.53;100.00;102420.72;5073536;28;19952;-62
2022/12/02 11:54:42;;;;;;;;;;;;;;;3.35;100.00;102419.47;5038186;28;19912;-62
2022/12/02 11:57:14;;;;;;;;;;;;;;;3.21;100.00;102423.47;5073201;28;19956;-63
2022/12/02 11:59:39;;;;;;;;;;;;;;;3.18;100.00;102419.94;5073100;28;19943;-60
2022/12/02 12:02:15;;;;;;;;;;;;;;;3.18;100.00;102417.34;5073006;28;19936;-60
2022/12/02 12:04:41;;;;;;;;;;;;;;;3.11;100.00;102428.44;5073194;28;19912;-62
2022/12/02 12:07:06;;;;;;;;;;;;;;;3.14;100.00;102418.09;5072785;28;19935;-62
2022/12/02 12:09:31;;;;;;;;;;;;;;;3.12;100.00;102409.41;5072964;28;19941;-64
2022/12/02 12:12:06;;;;;;;;;;;;;;;3.10;100.00;102418.84;5055280;28;19924;-61
2022/12/02 12:14:31;;;;;;;;;;;;;;;3.04;100.00;102418.72;5073210;28;19978;-61
2022/12/02 12:17:15;;;;;;;;;;;;;;;2.93;100.00;102404.59;5072275;28;20379;-63
2022/12/02 12:19:41;;;;;;;;;;;;;;;2.87;100.00;102401.84;5072678;28;19913;-62
2022/12/02 12:22:22;;;;;;;;;;;;;;;2.88;100.00;102399.28;5072849;28;19916;-63
2022/12/02 12:24:47;;;;;;;;;;;;;;;2.93;100.00;102421.06;5072735;28;19930;-61
2022/12/02 12:27:31;;;;;;;;;;;;;;;3.04;100.00;102414.41;5054049;28;20029;-63
2022/12/02 12:29:56;;;;;;;;;;;;;;;2.98;100.00;102406.44;5071947;28;19931;-61
2022/12/02 12:32:21;;;;;;;;;;;;;;;2.95;100.00;102408.13;5072180;28;19924;-62
2022/12/02 12:34:47;;;;;;;;;;;;;;;2.78;100.00;102402.50;5037724;28;19925;-62